メインページ
METAR-TAF:

METAR-TAF

空港 :

東京 / 羽田国際空港, 日本

東京国際空港

緯度: 35-33N, 経度: 139-47E, 海抜: 5m

現時点の気象観測

当レポートは13分前の12:30(UTC)に作成
の風 5kt
気温 23°C
湿度 94%
気圧 1011 hPa
視程10km以上
高度600ftの雲はほとんどない
高度700ftの雲は散在している
高度1000ftの千切れ雲あり

METAR: RJTT 271230Z 01005KT 9999 FEW006 SCT007 BKN010 23/22 Q1011 TEMPO FEW005 BKN008 RMK 1ST006 3ST007 7ST010 A2987

時間: 21:43 (12:43 UTC)

予報

当レポートは1時間37分前の11:06(UTC)に作成
予報は27日の 12時(UTC)から 28日の 18時(UTC)まで有効
の風 10kt
視程: 8000m
高度800ftの雲はほとんどない
高度1200ftの千切れ雲あり
27日の 12時(UTC)から 27日の 21時(UTC)まで一時的に
視程: 4000m
高度500ftの雲はほとんどない
高度800ftの千切れ雲あり
小雨, 靄
27日の 21時(UTC)から 28日の 00時(UTC)まで一時的に
高度500ftの雲はほとんどない
高度800ftの千切れ雲あり
28日の 12時(UTC)から 28日の 18時(UTC)まで一時的に
高度500ftの雲はほとんどない
高度800ftの千切れ雲あり

TAF: RJTT 271106Z 2712/2818 01010KT 8000 FEW008 BKN012 TEMPO 2712/2721 4000 -RA BR FEW005 BKN008 TEMPO 2721/2800 FEW005 BKN008 TEMPO 2812/2818 FEW005 BKN008

4,000以上の空港の気象観測と天気予報(METAR報とTAF報)

利用可能な観測所は地図上に黄色い丸と赤い丸で示す。

丸の上にカーソルを重ねると観測所名を参照できる。

次にクリックすると気象観測と天気予報を参照できる。

マップの切り替え:黒色「×」印の緑ボタンをクリックして拡大、「-」印の緑ボタンをクリックして縮小、緑色の三角印をクリックして隣りの地図に切り替え


METAR-TAF: